Time;durP1;ratioP1;P1;durP2;ratioP2;P2;SDS_P1;SDS_P2;PMS_P1;PMS_P2;Temp;Humidity;BMP_temperature;BMP_pressure;BME280_temperature;BME280_humidity;BME280_pressure;Samples;Min_cycle;Max_cycle;Signal;HPM_P1;HPM_P2
2021/06/17 00:00:01;;;;;;;;;11.00;11.00;;;;;27.69;45.67;98918.38;4935466;28;45389;-87
2021/06/17 00:02:26;;;;;;;;;10.50;9.50;;;;;27.68;45.87;98923.00;4930993;28;45510;-91
2021/06/17 00:04:52;;;;;;;;;15.00;12.00;;;;;27.63;45.79;98917.13;4930813;28;45509;-90
2021/06/17 00:07:17;;;;;;;;;11.50;10.25;;;;;27.59;45.76;98912.16;4932697;28;49045;-91
2021/06/17 00:09:43;;;;;;;;;11.75;11.75;;;;;27.53;46.24;98911.78;4955436;28;51782;-90
2021/06/17 00:12:08;;;;;;;;;11.00;10.00;;;;;27.58;46.45;98911.31;4951076;28;46516;-90
2021/06/17 00:14:34;;;;;;;;;12.00;12.00;;;;;27.55;46.41;98908.91;4932202;28;45514;-90
2021/06/17 00:17:00;;;;;;;;;12.00;11.00;;;;;27.55;46.38;98913.50;4946299;28;45485;-89
2021/06/17 00:19:27;;;;;;;;;13.50;11.50;;;;;27.39;46.78;98893.22;4930212;28;45610;-86
2021/06/17 00:21:53;;;;;;;;;13.25;13.25;;;;;27.56;46.18;98918.81;4946882;28;46188;-91
2021/06/17 00:24:18;;;;;;;;;10.75;10.75;;;;;27.55;46.80;98914.34;4954579;28;45354;-90
2021/06/17 00:26:44;;;;;;;;;12.50;11.25;;;;;27.53;46.69;98911.78;4935342;28;46258;-89
2021/06/17 00:29:09;;;;;;;;;10.00;10.00;;;;;27.52;46.35;98903.75;4952334;28;46854;-90
2021/06/17 00:31:35;;;;;;;;;12.00;11.00;;;;;27.59;46.64;98904.84;4947618;28;45454;-89
2021/06/17 00:34:00;;;;;;;;;11.25;10.25;;;;;27.59;46.85;98893.91;4936124;28;46878;-90
2021/06/17 00:36:26;;;;;;;;;12.25;12.25;;;;;27.53;46.32;98879.03;4941197;28;45486;-90
2021/06/17 00:38:51;;;;;;;;;13.50;11.25;;;;;27.51;46.25;98858.34;4936442;28;45400;-91
2021/06/17 00:41:17;;;;;;;;;16.25;11.00;;;;;27.68;46.65;98875.69;4948629;28;45546;-90
2021/06/17 00:43:42;;;;;;;;;12.50;10.25;;;;;27.67;46.44;98860.34;4949794;28;45668;-89
2021/06/17 00:46:07;;;;;;;;;12.25;10.25;;;;;27.72;46.65;98857.09;4935836;28;52734;-89
2021/06/17 00:48:33;;;;;;;;;14.25;12.75;;;;;27.65;46.50;98838.63;4936929;28;45381;-90
2021/06/17 00:51:01;;;;;;;;;13.00;12.25;;;;;27.74;46.39;98844.13;4938181;28;45317;-87
2021/06/17 00:53:32;;;;;;;;;13.50;11.50;;;;;27.73;46.95;98829.59;4936578;28;45864;-90
2021/06/17 00:55:58;;;;;;;;;11.00;11.00;;;;;27.55;46.35;98812.44;4933878;28;45456;-89
2021/06/17 00:58:25;;;;;;;;;11.00;11.00;;;;;27.71;46.94;98850.78;4949770;28;45989;-88
2021/06/17 01:00:50;;;;;;;;;12.50;11.50;;;;;27.70;46.72;98857.25;4934813;28;45317;-90
2021/06/17 01:03:16;;;;;;;;;12.75;12.00;;;;;27.65;46.96;98835.03;4952793;28;50558;-90
2021/06/17 01:05:42;;;;;;;;;10.00;10.00;;;;;27.67;46.49;98828.38;4933966;28;45522;-86
2021/06/17 01:08:27;;;;;;;;;11.00;10.75;;;;;27.66;46.75;98817.63;4932936;28;45683;-90
2021/06/17 01:11:20;;;;;;;;;13.25;11.75;;;;;27.67;46.74;98820.19;4933781;28;46398;-88
2021/06/17 01:13:53;;;;;;;;;10.50;10.50;;;;;27.66;46.62;98817.63;4936806;28;45602;-90
2021/06/17 01:16:38;;;;;;;;;9.75;9.75;;;;;27.68;47.07;98818.31;4940470;28;45482;-89
2021/06/17 01:19:15;;;;;;;;;9.50;9.50;;;;;27.66;46.79;98817.63;4962502;28;45524;-89
2021/06/17 01:21:59;;;;;;;;;13.00;11.75;;;;;27.67;46.66;98820.19;4945055;28;45410;-87
2021/06/17 01:24:39;;;;;;;;;11.25;9.75;;;;;27.67;47.44;98825.66;4951459;28;45842;-86
2021/06/17 01:27:29;;;;;;;;;11.75;11.75;;;;;27.65;47.22;98838.63;4936235;28;45492;-88
2021/06/17 01:30:03;;;;;;;;;14.00;13.00;;;;;27.50;47.57;98824.69;4936636;28;45497;-89
2021/06/17 01:32:29;;;;;;;;;11.25;9.25;;;;;27.56;47.76;98850.53;4933391;28;47224;-85
2021/06/17 01:34:55;;;;;;;;;12.25;11.25;;;;;27.47;48.34;98876.91;4932207;28;59475;-91
2021/06/17 01:37:23;;;;;;;;;14.75;13.25;;;;;27.41;50.73;98906.72;4950328;28;45406;-90
2021/06/17 01:39:49;;;;;;;;;10.00;10.00;;;;;27.21;49.98;98909.63;4949465;28;45711;-91
2021/06/17 01:42:15;;;;;;;;;13.75;12.00;;;;;26.97;50.60;98959.38;4960242;28;45398;-89
2021/06/17 01:44:45;;;;;;;;;10.00;10.00;;;;;26.70;53.29;99041.09;4956577;28;45952;-90
2021/06/17 01:47:12;;;;;;;;;9.75;8.00;;;;;25.86;62.71;99063.69;4935076;28;49064;-90
2021/06/17 01:50:29;;;;;;;;;7.50;6.75;;;;;-146.59;100.00;59519.28;4838368;28;1527238;-87
2021/06/17 01:54:09;;;;;;;;;;;;;;;-146.59;100.00;59519.28;1288648;28;180078371;-83
2021/06/17 01:56:35;;;;;;;;;13.00;9.50;;;;;-146.59;100.00;59519.28;4985175;28;13627;-83
2021/06/17 01:59:04;;;;;;;;;14.00;11.00;;;;;-146.59;100.00;59519.28;4984381;28;33110;-88
2021/06/17 02:01:32;;;;;;;;;11.25;9.00;;;;;-146.59;100.00;59519.28;4982114;28;9338;-87
2021/06/17 02:04:02;;;;;;;;;12.00;10.25;;;;;-146.59;100.00;59519.28;4967459;28;8806;-87
2021/06/17 02:06:32;;;;;;;;;8.75;7.75;;;;;-146.59;100.00;59519.28;4960051;28;28841;-84
2021/06/17 02:15:19;;;;;;;;;;;;;;;-146.59;100.00;59519.28;1851819;28;104934912;-82
2021/06/17 02:24:35;;;;;;;;;11.50;8.50;;;;;-146.59;100.00;59519.28;2;261083756;261083756;-83
2021/06/17 02:31:30;;;;;;;;;9.00;9.00;;;;;-146.59;100.00;59519.28;2;243077588;243077588;-84
2021/06/17 02:34:59;;;;;;;;;6.00;6.00;;;;;-146.59;100.00;59519.28;514093;28;176680089;-84
2021/06/17 02:37:25;;;;;;;;;15.67;12.00;;;;;-146.59;100.00;59519.28;4328208;28;12760020;-83
2021/06/17 02:39:51;;;;;;;;;14.25;12.50;;;;;-146.59;100.00;59519.28;4965821;28;9860;-84
2021/06/17 02:42:20;;;;;;;;;9.25;9.00;;;;;-146.59;100.00;59519.28;4969422;28;8952;-84
2021/06/17 02:44:47;;;;;;;;;11.50;10.00;;;;;-146.59;100.00;59519.28;4968822;28;8844;-82
2021/06/17 02:47:13;;;;;;;;;12.00;10.50;;;;;-146.59;100.00;59519.28;4964672;28;8882;-85
2021/06/17 02:49:40;;;;;;;;;12.00;11.25;;;;;-146.59;100.00;59519.28;4969773;28;8833;-82
2021/06/17 02:52:06;;;;;;;;;10.75;10.75;;;;;-146.59;100.00;59519.28;4968779;28;9649;-83
2021/06/17 02:54:31;;;;;;;;;14.00;11.75;;;;;-146.59;100.00;59519.28;4968459;28;8896;-83
2021/06/17 02:57:18;;;;;;;;;19.50;9.75;;;;;-146.59;100.00;59519.28;4968944;28;18216;-84
2021/06/17 03:00:16;;;;;;;;;15.00;13.00;;;;;-146.59;100.00;59519.28;4983921;28;8825;-83
2021/06/17 03:03:00;;;;;;;;;8.75;8.75;;;;;-146.59;100.00;59519.28;4968665;28;8825;-83
2021/06/17 03:05:36;;;;;;;;;9.25;8.75;;;;;-146.59;100.00;59519.28;4968773;28;8822;-84
2021/06/17 03:08:13;;;;;;;;;10.25;9.00;;;;;-146.59;100.00;59519.28;4961185;28;8834;-82
2021/06/17 03:10:39;;;;;;;;;18.25;11.75;;;;;-146.59;100.00;59519.28;4970273;28;8819;-82
2021/06/17 03:13:06;;;;;;;;;13.00;10.00;;;;;-146.59;100.00;59519.28;4965062;28;8841;-83
2021/06/17 03:15:34;;;;;;;;;10.00;10.00;;;;;-146.59;100.00;59519.28;4968385;28;8845;-84
2021/06/17 03:18:02;;;;;;;;;9.75;7.75;;;;;-146.59;100.00;59519.28;4969736;28;8818;-82
2021/06/17 03:20:30;;;;;;;;;8.00;8.00;;;;;-146.59;100.00;59519.28;4983556;28;8833;-82
2021/06/17 03:22:56;;;;;;;;;10.75;9.00;;;;;-146.59;100.00;59519.28;4968116;28;9614;-83
2021/06/17 03:25:23;;;;;;;;;12.25;10.00;;;;;-146.59;100.00;59519.28;4969461;28;8868;-82
2021/06/17 03:27:51;;;;;;;;;8.50;8.50;;;;;-146.59;100.00;59519.28;4965234;28;8966;-83
2021/06/17 03:30:21;;;;;;;;;13.75;9.50;;;;;-146.59;100.00;59519.28;4967649;28;8825;-82
2021/06/17 03:32:47;;;;;;;;;10.75;8.50;;;;;-146.59;100.00;59519.28;4968193;28;8880;-84
2021/06/17 03:35:16;;;;;;;;;13.25;9.75;;;;;-146.59;100.00;59519.28;4967988;28;8833;-82
2021/06/17 03:37:41;;;;;;;;;11.25;11.25;;;;;-146.59;100.00;59519.28;4965531;28;8845;-82
2021/06/17 03:40:07;;;;;;;;;9.50;7.75;;;;;-146.59;100.00;59519.28;4964768;28;22161;-83
2021/06/17 03:42:33;;;;;;;;;9.00;8.00;;;;;-146.59;100.00;59519.28;4967555;28;8845;-83
2021/06/17 03:44:59;;;;;;;;;7.50;7.00;;;;;-146.59;100.00;59519.28;4969432;28;8798;-84
2021/06/17 03:51:04;;;;;;;;;;;;;;;-146.59;100.00;59519.28;3596651;28;117050509;-84
2021/06/17 03:57:56;;;;;;;;;6.00;6.00;;;;;-146.59;100.00;59519.28;3;130573171;139566741;-81
2021/06/17 04:04:48;;;;;;;;;;;;;;;-146.59;100.00;59519.28;3;121553000;139562997;-80
2021/06/17 04:11:28;;;;;;;;;6.00;6.00;;;;;-146.59;100.00;59519.28;3;117068643;121554265;-84
2021/06/17 04:18:03;;;;;;;;;9.00;9.00;;;;;-146.59;100.00;59519.28;3;117065052;130561001;-83
2021/06/17 04:21:14;;;;;;;;;4.50;4.50;;;;;-146.59;100.00;59519.28;3;48877039;139561528;-84
2021/06/17 04:23:41;;;;;;;;;7.50;7.25;;;;;-146.59;100.00;59519.28;4935919;28;45469;-84
2021/06/17 04:26:07;;;;;;;;;8.75;8.75;;;;;-146.59;100.00;59519.28;4935210;28;45576;-85
2021/06/17 04:28:33;;;;;;;;;9.75;8.00;;;;;-146.59;100.00;59519.28;4934638;28;45813;-84
2021/06/17 04:31:00;;;;;;;;;9.75;9.00;;;;;-146.59;100.00;59519.28;4935756;28;45438;-86
2021/06/17 04:33:26;;;;;;;;;9.00;9.00;;;;;-146.59;100.00;59519.28;4935504;28;45467;-84
2021/06/17 04:35:54;;;;;;;;;9.25;8.75;;;;;-146.59;100.00;59519.28;4936036;28;45494;-82
2021/06/17 04:38:21;;;;;;;;;9.75;8.50;;;;;-146.59;100.00;59519.28;4932190;28;45871;-85
2021/06/17 04:40:47;;;;;;;;;12.00;9.25;;;;;-146.59;100.00;59519.28;4933175;28;45532;-85
2021/06/17 04:43:14;;;;;;;;;9.00;9.00;;;;;-146.59;100.00;59519.28;4917076;28;45537;-83
2021/06/17 04:45:41;;;;;;;;;7.25;7.25;;;;;-146.59;100.00;59519.28;4935259;28;46075;-84
2021/06/17 04:48:09;;;;;;;;;7.00;7.00;;;;;-146.59;100.00;59519.28;4935780;28;45732;-82
2021/06/17 04:50:35;;;;;;;;;7.50;7.50;;;;;-146.59;100.00;59519.28;4952065;28;45598;-85
2021/06/17 04:53:16;;;;;;;;;8.50;8.50;;;;;-146.59;100.00;59519.28;4935292;28;45497;-86
2021/06/17 04:55:48;;;;;;;;;11.25;9.75;;;;;-146.59;100.00;59519.28;4932574;28;46566;-87
2021/06/17 04:58:13;;;;;;;;;9.25;9.25;;;;;-146.59;100.00;59519.28;4932904;28;45454;-84
2021/06/17 05:00:39;;;;;;;;;10.75;9.00;;;;;-146.59;100.00;59519.28;4936238;28;45589;-85
2021/06/17 05:03:04;;;;;;;;;14.00;6.25;;;;;-146.59;100.00;59519.28;4936499;28;45438;-85
2021/06/17 05:05:30;;;;;;;;;9.25;8.50;;;;;-146.59;100.00;59519.28;4934894;28;45548;-85
2021/06/17 05:10:58;;;;;;;;;10.25;8.50;;;;;-146.59;100.00;59519.28;4932375;28;45393;-84
2021/06/17 05:13:31;;;;;;;;;14.00;8.50;;;;;-146.59;100.00;59519.28;4932351;28;45379;-83
2021/06/17 05:16:01;;;;;;;;;10.50;9.25;;;;;-146.59;100.00;59519.28;4935551;28;45559;-85
2021/06/17 05:18:28;;;;;;;;;10.00;7.50;;;;;-146.59;100.00;59519.28;4935327;28;45425;-85
2021/06/17 05:20:54;;;;;;;;;7.75;7.00;;;;;-146.59;100.00;59519.28;4935871;28;45675;-85
2021/06/17 05:23:21;;;;;;;;;8.50;7.00;;;;;-146.59;100.00;59519.28;4929813;28;45525;-85
2021/06/17 05:25:48;;;;;;;;;8.00;7.75;;;;;-146.59;100.00;59519.28;4931179;28;46556;-68
2021/06/17 05:28:17;;;;;;;;;9.25;6.25;;;;;-146.59;100.00;59519.28;4932807;28;45806;-61
2021/06/17 05:30:42;;;;;;;;;11.25;9.50;;;;;-146.59;100.00;59519.28;4935699;28;45730;-62
2021/06/17 05:33:08;;;;;;;;;7.00;5.50;;;;;-146.59;100.00;59519.28;4935581;28;45735;-63
2021/06/17 05:35:33;;;;;;;;;7.75;6.50;;;;;-146.59;100.00;59519.28;4936618;28;46077;-63
2021/06/17 05:37:58;;;;;;;;;10.25;4.75;;;;;-146.59;100.00;59519.28;4935786;28;55135;-62
2021/06/17 05:40:24;;;;;;;;;7.50;7.50;;;;;-146.59;100.00;59519.28;4936550;28;45355;-61
2021/06/17 05:42:49;;;;;;;;;7.75;6.00;;;;;-146.59;100.00;59519.28;4935841;28;49449;-61
2021/06/17 05:45:15;;;;;;;;;9.00;8.00;;;;;-146.59;100.00;59519.28;4935920;28;47421;-62
2021/06/17 05:47:40;;;;;;;;;5.50;5.00;;;;;-146.59;100.00;59519.28;4936952;28;45555;-63
2021/06/17 05:50:06;;;;;;;;;7.25;6.00;;;;;-146.59;100.00;59519.28;4933106;28;45444;-63
2021/06/17 05:52:32;;;;;;;;;8.75;7.00;;;;;-146.59;100.00;59519.28;4931982;28;45505;-63
2021/06/17 05:54:57;;;;;;;;;7.00;6.00;;;;;-146.59;100.00;59519.28;4935412;28;45893;-61
2021/06/17 05:57:23;;;;;;;;;6.75;5.75;;;;;-146.59;100.00;59519.28;4935526;28;45468;-63
2021/06/17 05:59:49;;;;;;;;;8.25;6.25;;;;;-146.59;100.00;59519.28;4935556;28;59297;-63
2021/06/17 06:02:14;;;;;;;;;5.25;5.25;;;;;-146.59;100.00;59519.28;4935048;28;56036;-63
2021/06/17 06:04:40;;;;;;;;;7.25;6.50;;;;;-146.59;100.00;59519.28;4935591;28;47054;-63
2021/06/17 06:07:05;;;;;;;;;5.50;5.50;;;;;-146.59;100.00;59519.28;4934987;28;59799;-63
2021/06/17 06:09:31;;;;;;;;;7.00;6.00;;;;;-146.59;100.00;59519.28;4935762;28;45556;-63
2021/06/17 06:11:56;;;;;;;;;7.75;5.75;;;;;-146.59;100.00;59519.28;4936339;28;53460;-61
2021/06/17 06:14:21;;;;;;;;;8.00;6.75;;;;;-146.59;100.00;59519.28;4934827;28;55562;-63
2021/06/17 06:16:47;;;;;;;;;8.00;6.00;;;;;-146.59;100.00;59519.28;4934713;28;59977;-62
2021/06/17 06:19:13;;;;;;;;;6.25;4.75;;;;;-146.59;100.00;59519.28;4935241;28;45326;-63
2021/06/17 06:21:38;;;;;;;;;8.00;7.50;;;;;-146.59;100.00;59519.28;4935087;28;45492;-61
2021/06/17 06:24:04;;;;;;;;;8.00;8.00;;;;;-146.59;100.00;59519.28;4936361;28;45514;-61
2021/06/17 06:26:29;;;;;;;;;8.25;7.25;;;;;-146.59;100.00;59519.28;4934586;28;45492;-61
2021/06/17 06:28:55;;;;;;;;;9.00;6.50;;;;;-146.59;100.00;59519.28;4935280;28;45394;-64
2021/06/17 06:31:20;;;;;;;;;7.00;5.75;;;;;-146.59;100.00;59519.28;4929955;28;54583;-66
2021/06/17 06:33:45;;;;;;;;;6.50;5.00;;;;;-146.59;100.00;59519.28;4931688;28;54553;-67
2021/06/17 06:36:11;;;;;;;;;5.75;4.25;;;;;-146.59;100.00;59519.28;4931623;28;53086;-67
2021/06/17 06:38:36;;;;;;;;;6.75;6.00;;;;;-146.59;100.00;59519.28;4933603;28;45566;-66
2021/06/17 06:41:01;;;;;;;;;7.50;5.00;;;;;-146.59;100.00;59519.28;4925990;28;45458;-64
2021/06/17 06:43:27;;;;;;;;;5.75;4.25;;;;;-146.59;100.00;59519.28;4935363;28;45695;-66
2021/06/17 06:45:52;;;;;;;;;6.00;5.00;;;;;-146.59;100.00;59519.28;4934693;28;45474;-66
2021/06/17 06:48:18;;;;;;;;;7.00;5.00;;;;;-146.59;100.00;59519.28;4927676;28;46202;-66
2021/06/17 06:50:45;;;;;;;;;6.25;6.25;;;;;-146.59;100.00;59519.28;4932725;28;45629;-66
2021/06/17 06:53:10;;;;;;;;;6.75;6.00;;;;;-146.59;100.00;59519.28;4932396;28;46062;-66
2021/06/17 06:55:35;;;;;;;;;11.00;7.00;;;;;-146.59;100.00;59519.28;4932856;28;45458;-66
2021/06/17 06:58:01;;;;;;;;;6.00;6.00;;;;;-146.59;100.00;59519.28;4932858;28;56624;-65
2021/06/17 07:00:26;;;;;;;;;5.00;3.75;;;;;-146.59;100.00;59519.28;4941643;28;45652;-66
2021/06/17 07:02:52;;;;;;;;;5.25;5.25;;;;;-146.59;100.00;59519.28;4934822;28;46004;-67
2021/06/17 07:05:17;;;;;;;;;6.25;5.00;;;;;-146.59;100.00;59519.28;4933690;28;45617;-65
2021/06/17 07:07:43;;;;;;;;;7.25;5.50;;;;;-146.59;100.00;59519.28;4934705;28;46090;-64
2021/06/17 07:10:11;;;;;;;;;5.00;4.50;;;;;-146.59;100.00;59519.28;4934987;28;45494;-63
2021/06/17 07:12:37;;;;;;;;;6.00;3.75;;;;;-146.59;100.00;59519.28;4931486;28;46196;-63
2021/06/17 07:15:03;;;;;;;;;6.75;5.25;;;;;-146.59;100.00;59519.28;4935514;28;45424;-64
2021/06/17 07:17:28;;;;;;;;;9.25;6.00;;;;;-146.59;100.00;59519.28;4934752;28;45517;-64
2021/06/17 07:19:57;;;;;;;;;8.00;6.00;;;;;-146.59;100.00;59519.28;4926456;28;45533;-65
2021/06/17 07:22:25;;;;;;;;;4.75;4.75;;;;;-146.59;100.00;59519.28;4934586;28;45387;-64
2021/06/17 07:24:54;;;;;;;;;5.00;5.00;;;;;-146.59;100.00;59519.28;4930416;28;45303;-64
2021/06/17 07:27:21;;;;;;;;;7.75;5.25;;;;;-146.59;100.00;59519.28;4932516;28;45477;-64
2021/06/17 07:29:46;;;;;;;;;6.25;5.00;;;;;-146.59;100.00;59519.28;4934869;28;45398;-64
2021/06/17 07:32:12;;;;;;;;;5.25;5.25;;;;;-146.59;100.00;59519.28;4934241;28;46267;-64
2021/06/17 07:34:37;;;;;;;;;6.00;6.00;;;;;-146.59;100.00;59519.28;4934929;28;45966;-65
2021/06/17 07:37:03;;;;;;;;;7.00;6.50;;;;;-146.59;100.00;59519.28;4937326;28;45501;-63
2021/06/17 07:39:29;;;;;;;;;5.75;4.50;;;;;-146.59;100.00;59519.28;4937347;28;61809;-63
2021/06/17 07:41:54;;;;;;;;;8.25;5.75;;;;;-146.59;100.00;59519.28;4927987;28;46274;-63
2021/06/17 07:44:19;;;;;;;;;7.00;5.75;;;;;-146.59;100.00;59519.28;4937279;28;45611;-64
2021/06/17 07:46:45;;;;;;;;;5.25;3.50;;;;;-146.59;100.00;59519.28;4937076;28;46002;-62
2021/06/17 07:49:10;;;;;;;;;8.50;5.25;;;;;-146.59;100.00;59519.28;4937424;28;45547;-64
2021/06/17 07:51:37;;;;;;;;;5.00;5.00;;;;;-146.59;100.00;59519.28;4937531;28;46341;-63
2021/06/17 07:54:03;;;;;;;;;6.00;6.00;;;;;-146.59;100.00;59519.28;4937988;28;45391;-62
2021/06/17 07:56:30;;;;;;;;;7.00;6.50;;;;;-146.59;100.00;59519.28;4936821;28;45523;-63
2021/06/17 07:58:56;;;;;;;;;7.75;6.25;;;;;-146.59;100.00;59519.28;4937864;28;45333;-64
2021/06/17 08:01:21;;;;;;;;;6.75;5.75;;;;;-146.59;100.00;59519.28;4936898;28;46114;-63
2021/06/17 08:03:48;;;;;;;;;7.00;5.50;;;;;-146.59;100.00;59519.28;4936705;28;45459;-63
2021/06/17 08:06:13;;;;;;;;;7.25;4.25;;;;;-146.59;100.00;59519.28;4937000;28;45419;-64
2021/06/17 08:08:38;;;;;;;;;5.00;5.00;;;;;-146.59;100.00;59519.28;4937653;28;45348;-63
2021/06/17 08:11:04;;;;;;;;;5.50;5.00;;;;;-146.59;100.00;59519.28;4932538;28;45448;-63
2021/06/17 08:13:29;;;;;;;;;9.00;6.50;;;;;-146.59;100.00;59519.28;4936763;28;48121;-63
2021/06/17 08:15:55;;;;;;;;;6.50;4.50;;;;;-146.59;100.00;59519.28;4936273;28;45891;-64
2021/06/17 08:18:20;;;;;;;;;5.00;4.50;;;;;-146.59;100.00;59519.28;4937208;28;45308;-64
2021/06/17 08:20:46;;;;;;;;;4.75;4.00;;;;;-146.59;100.00;59519.28;4937310;28;45993;-64
2021/06/17 08:23:11;;;;;;;;;8.00;5.00;;;;;-146.59;100.00;59519.28;4936949;28;45401;-63
2021/06/17 08:25:37;;;;;;;;;4.00;4.00;;;;;-146.59;100.00;59519.28;4932026;28;45437;-64
2021/06/17 08:28:04;;;;;;;;;4.00;4.00;;;;;-146.59;100.00;59519.28;4935885;28;45494;-63
2021/06/17 08:30:32;;;;;;;;;5.25;4.00;;;;;-146.59;100.00;59519.28;4936250;28;45840;-63
2021/06/17 08:32:57;;;;;;;;;5.00;3.75;;;;;-146.59;100.00;59519.28;4936260;28;45504;-64
2021/06/17 08:35:23;;;;;;;;;5.50;3.00;;;;;-146.59;100.00;59519.28;4934831;28;46294;-64
2021/06/17 08:37:48;;;;;;;;;3.50;3.50;;;;;-146.59;100.00;59519.28;4936525;28;45365;-64
2021/06/17 08:40:14;;;;;;;;;3.00;3.00;;;;;-146.59;100.00;59519.28;4929884;28;46043;-89
2021/06/17 08:42:40;;;;;;;;;4.75;3.00;;;;;-146.59;100.00;59519.28;4934031;28;45670;-86
2021/06/17 08:45:09;;;;;;;;;3.00;3.00;;;;;-146.59;100.00;59519.28;4925345;28;45786;-89
2021/06/17 08:47:36;;;;;;;;;4.25;3.75;;;;;-146.59;100.00;59519.28;4934109;28;45588;-88
2021/06/17 08:50:03;;;;;;;;;3.50;3.00;;;;;-146.59;100.00;59519.28;4936001;28;46010;-90
2021/06/17 08:52:34;;;;;;;;;2.75;2.75;;;;;-146.59;100.00;59519.28;4937337;28;46487;-82
2021/06/17 08:55:15;;;;;;;;;3.50;3.00;;;;;-146.59;100.00;59519.28;4935177;28;45759;-89
2021/06/17 08:57:41;;;;;;;;;3.00;3.00;;;;;-146.59;100.00;59519.28;4930925;28;45537;-88
2021/06/17 09:00:31;;;;;;;;;5.00;3.50;;;;;-146.59;100.00;59519.28;4916121;28;47273;-79
2021/06/17 09:03:03;;;;;;;;;5.50;5.00;;;;;-146.59;100.00;59519.28;4928449;28;45455;-88
2021/06/17 09:05:31;;;;;;;;;3.50;3.50;;;;;-146.59;100.00;59519.28;4935143;28;45465;-87
2021/06/17 09:07:56;;;;;;;;;3.00;3.00;;;;;-146.59;100.00;59519.28;4934869;28;45394;-86
2021/06/17 09:10:22;;;;;;;;;3.75;3.00;;;;;-146.59;100.00;59519.28;4950320;28;45948;-84
2021/06/17 09:12:50;;;;;;;;;4.00;3.00;;;;;-146.59;100.00;59519.28;4933508;28;45314;-87
2021/06/17 09:15:31;;;;;;;;;4.00;4.00;;;;;-146.59;100.00;59519.28;4919808;28;45507;-87
2021/06/17 09:18:18;;;;;;;;;2.75;2.75;;;;;-146.59;100.00;59519.28;4935711;28;45333;-90
2021/06/17 09:21:05;;;;;;;;;4.00;3.00;;;;;-146.59;100.00;59519.28;4932727;28;46369;-88
2021/06/17 09:23:39;;;;;;;;;2.50;2.50;;;;;-146.59;100.00;59519.28;4938142;28;45796;-92
2021/06/17 09:26:11;;;;;;;;;2.25;2.25;;;;;-146.59;100.00;59519.28;4930008;28;46705;-88
2021/06/17 09:31:31;;;;;;;;;3.25;3.25;;;;;-146.59;100.00;59519.28;4943028;28;46151;-86
2021/06/17 09:33:58;;;;;;;;;3.50;2.50;;;;;-146.59;100.00;59519.28;4947023;28;45564;-84
2021/06/17 09:36:32;;;;;;;;;4.00;3.00;;;;;-146.59;100.00;59519.28;4933118;28;45484;-84
2021/06/17 09:39:09;;;;;;;;;3.00;3.00;;;;;-146.59;100.00;59519.28;4933342;28;46016;-85
2021/06/17 09:41:38;;;;;;;;;5.00;3.00;;;;;-146.59;100.00;59519.28;4933725;28;45598;-86
2021/06/17 09:44:06;;;;;;;;;4.25;3.00;;;;;-146.59;100.00;59519.28;4930304;28;45483;-86
2021/06/17 09:46:35;;;;;;;;;3.00;3.00;;;;;-146.59;100.00;59519.28;4935428;28;45541;-84
2021/06/17 09:49:05;;;;;;;;;3.00;3.00;;;;;-146.59;100.00;59519.28;4930816;28;45489;-87
2021/06/17 09:51:35;;;;;;;;;4.00;4.00;;;;;-146.59;100.00;59519.28;4917944;28;47521;-89
2021/06/17 09:54:25;;;;;;;;;4.00;4.00;;;;;-146.59;100.00;59519.28;4934432;28;45422;-86
2021/06/17 09:56:56;;;;;;;;;4.00;3.25;;;;;-146.59;100.00;59519.28;4933360;28;46282;-86
2021/06/17 09:59:31;;;;;;;;;6.00;4.75;;;;;-146.59;100.00;59519.28;4921377;28;45444;-87
2021/06/17 10:01:56;;;;;;;;;3.00;3.00;;;;;-146.59;100.00;59519.28;4936310;28;47343;-89
2021/06/17 10:04:23;;;;;;;;;5.25;5.25;;;;;-146.59;100.00;59519.28;4926868;28;56886;-89
2021/06/17 10:06:51;;;;;;;;;6.00;5.00;;;;;-146.59;100.00;59519.28;4933491;28;45552;-87
2021/06/17 10:09:19;;;;;;;;;6.25;4.00;;;;;-146.59;100.00;59519.28;4933892;28;45513;-86
2021/06/17 10:11:46;;;;;;;;;2.25;2.25;;;;;-146.59;100.00;59519.28;4917860;28;47357;-86
2021/06/17 10:14:12;;;;;;;;;3.75;3.75;;;;;-146.59;100.00;59519.28;4949690;28;45823;-91
2021/06/17 10:16:39;;;;;;;;;3.25;3.25;;;;;-146.59;100.00;59519.28;4917914;28;45478;-86
2021/06/17 10:19:05;;;;;;;;;5.00;3.25;;;;;-146.59;100.00;59519.28;4932620;28;45428;-84
2021/06/17 10:21:34;;;;;;;;;4.00;3.75;;;;;-146.59;100.00;59519.28;4934480;28;45469;-82
2021/06/17 10:24:12;;;;;;;;;4.75;4.00;;;;;-146.59;100.00;59519.28;4918714;28;45853;-83
2021/06/17 10:26:46;;;;;;;;;3.50;3.50;;;;;-146.59;100.00;59519.28;4950934;28;45678;-86
2021/06/17 10:29:41;;;;;;;;;4.00;4.00;;;;;-146.59;100.00;59519.28;4930585;28;45760;-86
2021/06/17 10:32:09;;;;;;;;;4.25;4.00;;;;;-146.59;100.00;59519.28;4931567;28;46279;-85
2021/06/17 10:34:40;;;;;;;;;4.25;4.25;;;;;-146.59;100.00;59519.28;4929999;28;45431;-86
2021/06/17 10:37:14;;;;;;;;;6.75;4.00;;;;;-146.59;100.00;59519.28;4933896;28;45562;-84
2021/06/17 10:40:07;;;;;;;;;4.00;3.50;;;;;-146.59;100.00;59519.28;4933555;28;45475;-84
2021/06/17 10:42:40;;;;;;;;;4.00;4.00;;;;;-146.59;100.00;59519.28;4933673;28;45488;-85
2021/06/17 10:45:31;;;;;;;;;4.00;4.00;;;;;-146.59;100.00;59519.28;4934501;28;46309;-85
2021/06/17 10:47:59;;;;;;;;;5.00;5.00;;;;;-146.59;100.00;59519.28;4934364;28;45721;-85
2021/06/17 10:50:43;;;;;;;;;5.00;2.50;;;;;-146.59;100.00;59519.28;4930278;28;45615;-84
2021/06/17 10:53:32;;;;;;;;;7.25;4.75;;;;;-146.59;100.00;59519.28;4934509;28;46356;-86
2021/06/17 10:56:22;;;;;;;;;3.50;3.50;;;;;-146.59;100.00;59519.28;4928563;28;45866;-86
2021/06/17 10:58:49;;;;;;;;;4.00;4.00;;;;;-146.59;100.00;59519.28;4927356;28;45629;-86
2021/06/17 11:01:23;;;;;;;;;5.00;5.00;;;;;-146.59;100.00;59519.28;4934569;28;45474;-87
2021/06/17 11:04:02;;;;;;;;;4.00;3.50;;;;;-146.59;100.00;59519.28;4948886;28;48298;-86
2021/06/17 11:06:53;;;;;;;;;5.00;5.00;;;;;-146.59;100.00;59519.28;4931859;28;45471;-84
2021/06/17 11:09:42;;;;;;;;;4.00;4.00;;;;;-146.59;100.00;59519.28;4927651;28;45416;-86
2021/06/17 11:12:17;;;;;;;;;3.75;3.75;;;;;-146.59;100.00;59519.28;4931543;28;45471;-84
2021/06/17 11:14:44;;;;;;;;;4.00;3.75;;;;;-146.59;100.00;59519.28;4922536;28;45360;-86
2021/06/17 11:17:33;;;;;;;;;4.00;4.00;;;;;-146.59;100.00;59519.28;4932416;28;45522;-87
2021/06/17 11:20:06;;;;;;;;;3.50;3.50;;;;;-146.59;100.00;59519.28;4933235;28;45640;-87
2021/06/17 11:22:44;;;;;;;;;2.25;2.25;;;;;-146.59;100.00;59519.28;4934608;28;45403;-86
2021/06/17 11:25:15;;;;;;;;;3.50;3.50;;;;;-146.59;100.00;59519.28;4915557;28;46504;-88
2021/06/17 11:27:56;;;;;;;;;4.25;2.00;;;;;-146.59;100.00;59519.28;4928801;28;45585;-87
2021/06/17 11:30:37;;;;;;;;;4.25;3.50;;;;;-146.59;100.00;59519.28;4931898;28;45420;-88
2021/06/17 11:33:18;;;;;;;;;3.00;3.00;;;;;-146.59;100.00;59519.28;4930268;28;45541;-89
2021/06/17 11:35:58;;;;;;;;;2.25;2.25;;;;;-146.59;100.00;59519.28;4933385;28;45892;-84
2021/06/17 11:38:33;;;;;;;;;4.50;2.75;;;;;-146.59;100.00;59519.28;4930179;28;45783;-86
2021/06/17 11:41:00;;;;;;;;;2.75;2.75;;;;;-146.59;100.00;59519.28;4929455;28;45752;-88
2021/06/17 11:43:29;;;;;;;;;0.50;0.50;;;;;-146.59;100.00;59519.28;4925226;28;45583;-86
2021/06/17 11:45:55;;;;;;;;;2.00;2.00;;;;;-146.59;100.00;59519.28;4932187;28;46450;-87
2021/06/17 11:48:21;;;;;;;;;4.00;2.75;;;;;-146.59;100.00;59519.28;4922087;28;45566;-87
2021/06/17 11:50:49;;;;;;;;;1.00;1.00;;;;;-146.59;100.00;59519.28;4932730;28;45458;-86
2021/06/17 11:53:20;;;;;;;;;1.75;1.75;;;;;-146.59;100.00;59519.28;4926062;28;45525;-85
2021/06/17 11:55:50;;;;;;;;;1.00;1.00;;;;;-146.59;100.00;59519.28;4944719;28;45885;-88
2021/06/17 11:58:18;;;;;;;;;2.25;2.25;;;;;-146.59;100.00;59519.28;4932326;28;45472;-89
2021/06/17 12:00:44;;;;;;;;;3.25;2.00;;;;;-146.59;100.00;59519.28;4931273;28;45423;-89
2021/06/17 12:03:19;;;;;;;;;1.00;1.00;;;;;-146.59;100.00;59519.28;4933624;28;45442;-86
2021/06/17 12:05:47;;;;;;;;;2.00;2.00;;;;;-146.59;100.00;59519.28;4943877;28;47410;-85